Terminal Aerodrome Forecast
Issued by NWS

Home | Current Version | Previous Version | Text Only | Print | Product List | Glossary On
Versions: 1 2 3 4 5 6 7 8 9 10 11 12 13 14
000
FTUS45 KRIW 210700 AAA
TAFWRL
TAF AMD
KWRL 210700Z 2107/2206 VRB03KT 2SM BR SCT002
      TEMPO 2107/2111 3/4SM BR VV002
     FM211700 VRB03KT P6SM SCT100
     FM220000 VRB03KT P6SM BKN070=

USA.gov is the U.S. government's official web portal to all federal, state and local government web resources and services.